Time;durP1;ratioP1;P1;durP2;ratioP2;P2;SDS_P1;SDS_P2;PMS_P1;PMS_P2;Temp;Humidity;BMP_temperature;BMP_pressure;BME280_temperature;BME280_humidity;BME280_pressure;Samples;Min_cycle;Max_cycle;Signal;HPM_P1;HPM_P2
2021/01/24 00:01:04;;;;;;;;;;;29.30;34.30;;;;;;5073598;28;19995;-49
2021/01/24 00:03:29;;;;;;;;;;;29.30;34.20;;;;;;5078352;28;20022;-48
2021/01/24 00:05:55;;;;;;;;;;;29.30;34.30;;;;;;5073682;28;19969;-49
2021/01/24 00:08:22;;;;;;;;;;;29.30;34.20;;;;;;5074024;28;19909;-49
2021/01/24 00:10:47;;;;;;;;;;;29.30;34.30;;;;;;5085514;28;19920;-49
2021/01/24 00:13:13;;;;;;;;;;;29.30;34.20;;;;;;5077063;28;19929;-49
2021/01/24 00:15:38;;;;;;;;;;;29.30;34.20;;;;;;5073543;28;19912;-51
2021/01/24 00:18:04;;;;;;;;;;;29.20;34.10;;;;;;5073931;28;19916;-49
2021/01/24 00:20:29;;;;;;;;;;;29.30;34.10;;;;;;5073285;28;19944;-48
2021/01/24 00:22:55;;;;;;;;;;;29.20;34.10;;;;;;5081952;28;19920;-48
2021/01/24 00:25:20;;;;;;;;;;;29.20;34.10;;;;;;5073617;28;20434;-49
2021/01/24 00:27:46;;;;;;;;;;;29.20;34.20;;;;;;5073473;28;19909;-48
2021/01/24 00:30:11;;;;;;;;;;;29.10;34.10;;;;;;5074088;28;19921;-48
2021/01/24 00:32:37;;;;;;;;;;;29.20;34.10;;;;;;5091880;28;19979;-48
2021/01/24 00:35:03;;;;;;;;;;;29.10;34.00;;;;;;5084932;28;20286;-48
2021/01/24 00:37:28;;;;;;;;;;;29.10;34.00;;;;;;5085488;28;19912;-48
2021/01/24 00:39:53;;;;;;;;;;;29.10;34.00;;;;;;5093551;28;20292;-51
2021/01/24 00:42:19;;;;;;;;;;;29.10;33.90;;;;;;5091501;28;19920;-48
2021/01/24 00:44:44;;;;;;;;;;;29.10;33.90;;;;;;5084136;28;19912;-49
2021/01/24 00:47:10;;;;;;;;;;;29.10;33.80;;;;;;5073274;28;19913;-49
2021/01/24 00:49:35;;;;;;;;;;;29.10;33.80;;;;;;5087296;28;19973;-49
2021/01/24 00:52:01;;;;;;;;;;;29.10;33.80;;;;;;5080349;28;19922;-48
2021/01/24 00:54:26;;;;;;;;;;;29.10;33.80;;;;;;5073240;28;20366;-47
2021/01/24 00:56:52;;;;;;;;;;;29.10;33.80;;;;;;5084988;28;20366;-52
2021/01/24 00:59:17;;;;;;;;;;;29.10;33.80;;;;;;5093038;28;19955;-47
2021/01/24 01:01:43;;;;;;;;;;;29.10;33.80;;;;;;5091622;28;19920;-49
2021/01/24 01:04:08;;;;;;;;;;;29.10;33.70;;;;;;5088184;28;20365;-48
2021/01/24 01:06:34;;;;;;;;;;;29.10;33.70;;;;;;5073057;28;19912;-48
2021/01/24 01:08:59;;;;;;;;;;;29.10;33.70;;;;;;5073057;28;20394;-48
2021/01/24 01:11:25;;;;;;;;;;;29.10;33.70;;;;;;5081197;28;20354;-49
2021/01/24 01:13:50;;;;;;;;;;;29.10;34.30;;;;;;5075421;28;19920;-50
2021/01/24 01:16:16;;;;;;;;;;;29.10;33.80;;;;;;5077236;28;20281;-48
2021/01/24 01:18:41;;;;;;;;;;;29.00;33.70;;;;;;5093192;28;19915;-47
2021/01/24 01:21:07;;;;;;;;;;;29.00;33.70;;;;;;5078563;28;19919;-49
2021/01/24 01:23:32;;;;;;;;;;;29.00;33.60;;;;;;5093045;28;19915;-48
2021/01/24 01:25:58;;;;;;;;;;;29.00;33.70;;;;;;5088158;28;20392;-48
2021/01/24 01:28:23;;;;;;;;;;;29.10;33.70;;;;;;5088343;28;19916;-48
2021/01/24 01:30:49;;;;;;;;;;;29.10;33.70;;;;;;5087094;28;19943;-49
2021/01/24 01:33:14;;;;;;;;;;;29.00;33.70;;;;;;5072459;28;20298;-48
2021/01/24 01:35:40;;;;;;;;;;;29.00;33.60;;;;;;5072812;28;19920;-48
2021/01/24 01:38:05;;;;;;;;;;;29.00;33.60;;;;;;5089603;28;19912;-49
2021/01/24 01:40:31;;;;;;;;;;;29.00;33.70;;;;;;5092920;28;19955;-48
2021/01/24 01:42:56;;;;;;;;;;;29.00;33.70;;;;;;5085156;28;19913;-48
2021/01/24 01:45:22;;;;;;;;;;;28.90;33.60;;;;;;5079957;28;20434;-48
2021/01/24 01:47:47;;;;;;;;;;;28.90;33.60;;;;;;5092511;28;20015;-50
2021/01/24 01:50:13;;;;;;;;;;;28.90;33.60;;;;;;5091036;28;19973;-49
2021/01/24 01:52:39;;;;;;;;;;;28.90;33.70;;;;;;5056868;28;20011;-48
2021/01/24 01:55:04;;;;;;;;;;;28.90;33.60;;;;;;5096016;28;19951;-49
2021/01/24 01:57:30;;;;;;;;;;;28.90;33.60;;;;;;5092764;28;19916;-49
2021/01/24 01:59:55;;;;;;;;;;;28.90;33.60;;;;;;5086645;28;19922;-47
2021/01/24 02:02:28;;;;;;;;;;;28.90;33.60;;;;;;5080127;28;20313;-48
2021/01/24 02:05:04;;;;;;;;;;;28.90;33.60;;;;;;5075968;28;20255;-49
2021/01/24 02:07:32;;;;;;;;;;;29.00;33.60;;;;;;5060357;28;20274;-49
2021/01/24 02:10:01;;;;;;;;;;;28.90;33.60;;;;;;5058322;28;19915;-48
2021/01/24 02:12:30;;;;;;;;;;;28.90;33.60;;;;;;5060182;28;19942;-50
2021/01/24 02:15:08;;;;;;;;;;;28.90;33.60;;;;;;5076071;28;19962;-49
2021/01/24 02:17:35;;;;;;;;;;;28.90;33.50;;;;;;5058086;28;20306;-48
2021/01/24 02:20:01;;;;;;;;;;;28.90;33.60;;;;;;5076930;28;19916;-49
2021/01/24 02:22:30;;;;;;;;;;;28.90;33.60;;;;;;5091095;28;20243;-50
2021/01/24 02:24:58;;;;;;;;;;;28.90;33.60;;;;;;5096167;28;19936;-54
2021/01/24 02:27:33;;;;;;;;;;;28.90;33.50;;;;;;5074643;28;19970;-50
2021/01/24 02:30:04;;;;;;;;;;;28.90;33.50;;;;;;5093854;28;20374;-50
2021/01/24 02:32:30;;;;;;;;;;;28.90;33.50;;;;;;5081235;28;19927;-50
2021/01/24 02:34:55;;;;;;;;;;;28.90;33.50;;;;;;5095725;28;19908;-50
2021/01/24 02:37:21;;;;;;;;;;;28.90;33.60;;;;;;5066421;28;19916;-51
2021/01/24 02:39:46;;;;;;;;;;;28.90;33.50;;;;;;5058328;28;19916;-48
2021/01/24 02:42:12;;;;;;;;;;;28.90;33.50;;;;;;5064801;28;19977;-48
2021/01/24 02:44:38;;;;;;;;;;;28.90;33.50;;;;;;5075785;28;19912;-50
2021/01/24 02:47:03;;;;;;;;;;;28.90;33.40;;;;;;5095678;28;19919;-48
2021/01/24 02:49:29;;;;;;;;;;;28.90;33.40;;;;;;5077523;28;20257;-51
2021/01/24 02:51:54;;;;;;;;;;;28.80;33.40;;;;;;5065092;28;19912;-48
2021/01/24 02:54:20;;;;;;;;;;;28.90;33.40;;;;;;5084566;28;19920;-49
2021/01/24 02:56:46;;;;;;;;;;;28.80;33.30;;;;;;5083773;28;19912;-48
2021/01/24 02:59:11;;;;;;;;;;;28.90;33.40;;;;;;5057433;28;20350;-48
2021/01/24 03:01:36;;;;;;;;;;;28.90;33.30;;;;;;5066809;28;20273;-51
2021/01/24 03:04:02;;;;;;;;;;;28.80;33.20;;;;;;5077321;28;19908;-48
2021/01/24 03:06:28;;;;;;;;;;;28.90;33.20;;;;;;5087252;28;19927;-48
2021/01/24 03:08:53;;;;;;;;;;;28.90;33.20;;;;;;5094992;28;19912;-48
2021/01/24 03:11:19;;;;;;;;;;;28.80;33.10;;;;;;5087330;28;19913;-50
2021/01/24 03:13:49;;;;;;;;;;;28.80;33.10;;;;;;5063343;28;19927;-48
2021/01/24 03:16:14;;;;;;;;;;;28.80;33.10;;;;;;5077167;28;19908;-48
2021/01/24 03:18:40;;;;;;;;;;;28.80;33.00;;;;;;5076586;28;19908;-49
2021/01/24 03:21:06;;;;;;;;;;;28.80;33.00;;;;;;5073826;28;19965;-48
2021/01/24 03:23:32;;;;;;;;;;;28.80;33.60;;;;;;5077102;28;20006;-48
2021/01/24 03:25:57;;;;;;;;;;;28.80;33.00;;;;;;5071781;28;20333;-48
2021/01/24 03:28:23;;;;;;;;;;;28.80;33.00;;;;;;5056698;28;19916;-48
2021/01/24 03:30:48;;;;;;;;;;;28.80;33.00;;;;;;5060449;28;19920;-49
2021/01/24 03:33:14;;;;;;;;;;;28.80;33.00;;;;;;5094514;28;20015;-48
2021/01/24 03:35:39;;;;;;;;;;;28.80;33.00;;;;;;5094018;28;20014;-48
2021/01/24 03:38:05;;;;;;;;;;;28.80;33.00;;;;;;5094776;28;19915;-49
2021/01/24 03:40:30;;;;;;;;;;;28.80;33.00;;;;;;5093167;28;20008;-48
2021/01/24 03:42:56;;;;;;;;;;;28.80;33.00;;;;;;5074484;28;19912;-48
2021/01/24 03:45:21;;;;;;;;;;;28.80;33.00;;;;;;5075061;28;19965;-49
2021/01/24 03:47:47;;;;;;;;;;;28.80;33.00;;;;;;5074053;28;20020;-50
2021/01/24 03:50:12;;;;;;;;;;;28.80;33.00;;;;;;5079574;28;19970;-50
2021/01/24 03:52:38;;;;;;;;;;;28.80;32.90;;;;;;5077016;28;19924;-50
2021/01/24 03:55:03;;;;;;;;;;;28.70;32.90;;;;;;5074220;28;19912;-49
2021/01/24 03:57:29;;;;;;;;;;;28.70;32.90;;;;;;5091007;28;19912;-48
2021/01/24 03:59:54;;;;;;;;;;;28.70;32.90;;;;;;5094276;28;19935;-47
2021/01/24 04:02:20;;;;;;;;;;;28.70;32.80;;;;;;5081881;28;20274;-49
2021/01/24 04:04:46;;;;;;;;;;;28.70;32.90;;;;;;5077947;28;19912;-51
2021/01/24 04:07:12;;;;;;;;;;;28.70;32.90;;;;;;5081807;28;19936;-48
2021/01/24 04:09:37;;;;;;;;;;;28.70;32.90;;;;;;5073537;28;20256;-48
2021/01/24 04:12:03;;;;;;;;;;;28.70;32.90;;;;;;5073826;28;19913;-48
2021/01/24 04:14:28;;;;;;;;;;;28.70;33.00;;;;;;5073983;28;19928;-50
2021/01/24 04:16:53;;;;;;;;;;;28.70;32.90;;;;;;5073491;28;20415;-50
2021/01/24 04:19:19;;;;;;;;;;;28.70;32.80;;;;;;5073154;28;19909;-48
2021/01/24 04:21:44;;;;;;;;;;;28.70;32.90;;;;;;5075486;28;19916;-49
2021/01/24 04:24:10;;;;;;;;;;;28.70;32.90;;;;;;5073578;28;20265;-49
2021/01/24 04:26:35;;;;;;;;;;;28.70;32.90;;;;;;5083539;28;19912;-49
2021/01/24 04:29:01;;;;;;;;;;;28.70;32.80;;;;;;5086589;28;19943;-48
2021/01/24 04:31:27;;;;;;;;;;;28.70;32.80;;;;;;5074630;28;19959;-48
2021/01/24 04:33:52;;;;;;;;;;;28.70;32.80;;;;;;5073391;28;20286;-48
2021/01/24 04:36:18;;;;;;;;;;;28.70;32.80;;;;;;5073608;28;20366;-50
2021/01/24 04:38:43;;;;;;;;;;;28.70;32.80;;;;;;5090154;28;20006;-48
2021/01/24 04:41:08;;;;;;;;;;;28.80;32.80;;;;;;5091427;28;20023;-49
2021/01/24 04:43:34;;;;;;;;;;;28.70;32.70;;;;;;5079525;28;19934;-48
2021/01/24 04:46:00;;;;;;;;;;;28.70;32.70;;;;;;5075488;28;20421;-49
2021/01/24 04:48:25;;;;;;;;;;;28.70;32.70;;;;;;5093015;28;19908;-52
2021/01/24 04:50:51;;;;;;;;;;;28.70;32.70;;;;;;5091226;28;19997;-48
2021/01/24 04:53:16;;;;;;;;;;;28.70;32.70;;;;;;5074922;28;19916;-49
2021/01/24 04:55:42;;;;;;;;;;;28.70;32.70;;;;;;5090600;28;19950;-49
2021/01/24 04:58:07;;;;;;;;;;;28.70;32.60;;;;;;5072054;28;19912;-48
2021/01/24 05:00:34;;;;;;;;;;;28.70;32.70;;;;;;5073505;28;20325;-50
2021/01/24 05:02:59;;;;;;;;;;;28.70;32.60;;;;;;5072879;28;20370;-49
2021/01/24 05:05:25;;;;;;;;;;;28.70;32.60;;;;;;5072704;28;19956;-51
2021/01/24 05:07:57;;;;;;;;;;;28.80;32.60;;;;;;5085607;28;19912;-48
2021/01/24 05:10:23;;;;;;;;;;;28.80;32.60;;;;;;5085235;28;19920;-48
2021/01/24 05:12:48;;;;;;;;;;;28.80;32.60;;;;;;5092868;28;20435;-48
2021/01/24 05:15:14;;;;;;;;;;;28.80;32.60;;;;;;5073906;28;19920;-49
2021/01/24 05:17:55;;;;;;;;;;;28.70;32.60;;;;;;5072797;28;19913;-48
2021/01/24 05:20:21;;;;;;;;;;;28.70;32.50;;;;;;5076153;28;19920;-50
2021/01/24 05:22:47;;;;;;;;;;;28.70;32.60;;;;;;5089456;28;19912;-48
2021/01/24 05:25:15;;;;;;;;;;;28.70;32.50;;;;;;5079890;28;19939;-48
2021/01/24 05:27:41;;;;;;;;;;;28.70;32.50;;;;;;5091439;28;19923;-49
2021/01/24 05:30:07;;;;;;;;;;;28.70;32.50;;;;;;5096470;28;19920;-48
2021/01/24 05:32:42;;;;;;;;;;;28.80;32.50;;;;;;5078758;28;20358;-49
2021/01/24 05:35:11;;;;;;;;;;;28.80;32.50;;;;;;5076879;28;19927;-47
2021/01/24 05:37:37;;;;;;;;;;;28.80;32.50;;;;;;5077278;28;19912;-48
2021/01/24 05:40:04;;;;;;;;;;;28.70;32.50;;;;;;5077240;28;19991;-50
2021/01/24 05:42:33;;;;;;;;;;;28.80;32.50;;;;;;5058486;28;19908;-48
2021/01/24 05:44:58;;;;;;;;;;;28.80;32.50;;;;;;5093028;28;20003;-48
2021/01/24 05:47:23;;;;;;;;;;;28.70;32.50;;;;;;5078738;28;20348;-48
2021/01/24 05:49:49;;;;;;;;;;;28.70;32.40;;;;;;5096361;28;19908;-48
2021/01/24 05:52:19;;;;;;;;;;;28.80;32.50;;;;;;5090952;28;19916;-48
2021/01/24 05:54:47;;;;;;;;;;;28.70;32.40;;;;;;5060935;28;19950;-48
2021/01/24 05:57:13;;;;;;;;;;;28.70;32.40;;;;;;5091450;28;19912;-49
2021/01/24 05:59:51;;;;;;;;;;;28.80;32.40;;;;;;5096331;28;19908;-50
2021/01/24 06:02:17;;;;;;;;;;;28.70;32.30;;;;;;5077686;28;19912;-48
2021/01/24 06:04:43;;;;;;;;;;;28.70;32.40;;;;;;5086802;28;20372;-48
2021/01/24 06:07:09;;;;;;;;;;;28.70;32.30;;;;;;5084940;28;19912;-48
2021/01/24 06:09:34;;;;;;;;;;;28.70;32.30;;;;;;5088732;28;19924;-49
2021/01/24 06:12:00;;;;;;;;;;;28.70;32.30;;;;;;5057956;28;20301;-49
2021/01/24 06:14:26;;;;;;;;;;;28.70;32.30;;;;;;5078066;28;19978;-50
2021/01/24 06:16:51;;;;;;;;;;;28.70;32.20;;;;;;5058289;28;19909;-49
2021/01/24 06:19:18;;;;;;;;;;;28.70;32.20;;;;;;5059334;28;20358;-48
2021/01/24 06:21:45;;;;;;;;;;;28.70;32.20;;;;;;5064273;28;19920;-48
2021/01/24 06:24:13;;;;;;;;;;;28.70;32.10;;;;;;5058086;28;19952;-48
2021/01/24 06:26:39;;;;;;;;;;;28.80;32.20;;;;;;5068003;28;19955;-48
2021/01/24 06:29:05;;;;;;;;;;;28.80;32.20;;;;;;5077748;28;19950;-48
2021/01/24 06:31:30;;;;;;;;;;;28.80;32.20;;;;;;5067949;28;19959;-48
2021/01/24 06:33:56;;;;;;;;;;;28.80;32.20;;;;;;5092779;28;19965;-51
2021/01/24 06:36:21;;;;;;;;;;;28.80;32.20;;;;;;5074124;28;19916;-48
2021/01/24 06:38:53;;;;;;;;;;;28.80;32.20;;;;;;5084389;28;19969;-49
2021/01/24 06:41:37;;;;;;;;;;;28.80;32.20;;;;;;5094038;28;19967;-55
2021/01/24 06:44:03;;;;;;;;;;;28.70;32.20;;;;;;5058376;28;20290;-52
2021/01/24 06:46:28;;;;;;;;;;;28.80;32.50;;;;;;5094695;28;19916;-55
2021/01/24 06:48:54;;;;;;;;;;;28.70;32.60;;;;;;5095425;28;20288;-56
2021/01/24 06:51:39;;;;;;;;;;;28.70;32.80;;;;;;5095525;28;19931;-56
2021/01/24 06:54:08;;;;;;;;;;;28.70;32.90;;;;;;5095533;28;19926;-57
2021/01/24 06:56:36;;;;;;;;;;;28.70;33.00;;;;;;5093095;28;19919;-61
2021/01/24 06:59:02;;;;;;;;;;;28.70;33.10;;;;;;5095491;28;20318;-61
2021/01/24 07:01:30;;;;;;;;;;;28.70;33.10;;;;;;5095252;28;19908;-61
2021/01/24 07:04:14;;;;;;;;;;;28.70;33.10;;;;;;5094466;28;19961;-60
2021/01/24 07:06:40;;;;;;;;;;;28.70;33.10;;;;;;5074918;28;20354;-60
2021/01/24 07:09:27;;;;;;;;;;;28.70;33.80;;;;;;5074876;28;19908;-59
2021/01/24 07:11:59;;;;;;;;;;;28.80;35.70;;;;;;5074904;28;19997;-58
2021/01/24 07:14:37;;;;;;;;;;;28.80;38.90;;;;;;5074891;28;19921;-58
2021/01/24 07:17:02;;;;;;;;;;;28.80;39.20;;;;;;5074695;28;19918;-61
2021/01/24 07:19:28;;;;;;;;;;;28.80;39.60;;;;;;5081728;28;19912;-73
2021/01/24 07:21:54;;;;;;;;;;;28.70;39.10;;;;;;5076952;28;19961;-73
2021/01/24 07:24:19;;;;;;;;;;;28.60;38.70;;;;;;5095005;28;20358;-71
2021/01/24 07:26:45;;;;;;;;;;;28.70;38.30;;;;;;5094701;28;19908;-70
2021/01/24 07:29:10;;;;;;;;;;;28.70;37.60;;;;;;5076315;28;19919;-69
2021/01/24 07:31:36;;;;;;;;;;;28.80;37.60;;;;;;5094890;28;20271;-64
2021/01/24 07:34:01;;;;;;;;;;;28.80;37.20;;;;;;5088514;28;19924;-60
2021/01/24 07:36:26;;;;;;;;;;;28.40;26.20;;;;;;5065888;28;19923;-69
2021/01/24 07:38:52;;;;;;;;;;;26.90;23.40;;;;;;5076216;28;19912;-61
2021/01/24 07:41:18;;;;;;;;;;;26.40;24.60;;;;;;5076324;28;19912;-55
2021/01/24 07:43:44;;;;;;;;;;;26.60;28.60;;;;;;5094310;28;20401;-55
2021/01/24 07:46:09;;;;;;;;;;;26.90;29.00;;;;;;5094598;28;19951;-51
2021/01/24 07:48:35;;;;;;;;;;;27.30;29.30;;;;;;5094487;28;19912;-55
2021/01/24 07:51:00;;;;;;;;;;;27.50;29.40;;;;;;5085543;28;20003;-54
2021/01/24 07:53:26;;;;;;;;;;;27.80;29.40;;;;;;5056038;28;19916;-56
2021/01/24 07:55:51;;;;;;;;;;;28.00;29.20;;;;;;5056291;28;19909;-52
2021/01/24 07:58:17;;;;;;;;;;;28.10;29.20;;;;;;5056313;28;19912;-50
2021/01/24 08:00:43;;;;;;;;;;;28.20;29.20;;;;;;5056100;28;19912;-51
2021/01/24 08:03:08;;;;;;;;;;;28.30;29.40;;;;;;5073976;28;19908;-52
2021/01/24 08:05:34;;;;;;;;;;;28.40;29.40;;;;;;5092021;28;19951;-56
2021/01/24 08:07:59;;;;;;;;;;;28.40;29.40;;;;;;5094243;28;19912;-55
2021/01/24 08:10:28;;;;;;;;;;;28.50;29.60;;;;;;5094211;28;20328;-55
2021/01/24 08:12:54;;;;;;;;;;;28.50;29.60;;;;;;5083638;28;19982;-52
2021/01/24 08:15:19;;;;;;;;;;;28.60;29.70;;;;;;5055990;28;19909;-52
2021/01/24 08:17:46;;;;;;;;;;;28.60;29.80;;;;;;5073448;28;19954;-53
2021/01/24 08:20:11;;;;;;;;;;;28.60;29.90;;;;;;5073672;28;19932;-52
2021/01/24 08:22:37;;;;;;;;;;;28.60;30.00;;;;;;5055542;28;20367;-53
2021/01/24 08:25:02;;;;;;;;;;;28.60;30.00;;;;;;5055769;28;19916;-54
2021/01/24 08:27:28;;;;;;;;;;;28.60;30.00;;;;;;5073464;28;19938;-54
2021/01/24 08:29:53;;;;;;;;;;;28.70;30.20;;;;;;5055259;28;20094;-53
2021/01/24 08:32:19;;;;;;;;;;;28.70;30.20;;;;;;5073067;28;19912;-52
2021/01/24 08:34:44;;;;;;;;;;;28.70;30.40;;;;;;5073579;28;19951;-52
2021/01/24 08:37:10;;;;;;;;;;;28.70;30.50;;;;;;5073432;28;19954;-56
2021/01/24 08:39:35;;;;;;;;;;;28.70;30.60;;;;;;5072961;28;20381;-55
2021/01/24 08:42:03;;;;;;;;;;;28.70;30.70;;;;;;5079548;28;19912;-52
2021/01/24 08:44:28;;;;;;;;;;;28.70;30.80;;;;;;5092156;28;19919;-53
2021/01/24 08:46:54;;;;;;;;;;;28.70;30.90;;;;;;5091706;28;20281;-54
2021/01/24 08:49:20;;;;;;;;;;;28.70;31.00;;;;;;5074962;28;19943;-52
2021/01/24 08:51:55;;;;;;;;;;;28.70;31.10;;;;;;5093485;28;19943;-54
2021/01/24 08:54:22;;;;;;;;;;;28.80;31.20;;;;;;5093381;28;19947;-52
2021/01/24 08:56:47;;;;;;;;;;;28.70;31.20;;;;;;5090704;28;20442;-56
2021/01/24 08:59:26;;;;;;;;;;;28.80;31.30;;;;;;5072851;28;19908;-51
2021/01/24 09:01:52;;;;;;;;;;;28.70;31.30;;;;;;5072848;28;19916;-52
2021/01/24 09:04:21;;;;;;;;;;;28.80;31.40;;;;;;5072193;28;19908;-52
2021/01/24 09:07:04;;;;;;;;;;;28.80;31.50;;;;;;5088649;28;19955;-51
2021/01/24 09:09:30;;;;;;;;;;;28.80;31.50;;;;;;5093179;28;19912;-51
2021/01/24 09:11:55;;;;;;;;;;;28.80;31.60;;;;;;5092889;28;19908;-56
2021/01/24 09:14:21;;;;;;;;;;;28.80;31.50;;;;;;5085471;28;19920;-56
2021/01/24 09:17:07;;;;;;;;;;;28.80;31.60;;;;;;5072669;28;20366;-53
2021/01/24 09:19:33;;;;;;;;;;;28.80;31.60;;;;;;5072004;28;19909;-56
2021/01/24 09:21:58;;;;;;;;;;;28.80;31.60;;;;;;5072678;28;19908;-52
2021/01/24 09:24:24;;;;;;;;;;;28.90;31.60;;;;;;5072980;28;19962;-54
2021/01/24 09:26:49;;;;;;;;;;;28.90;31.60;;;;;;5074842;28;20389;-52
2021/01/24 09:29:15;;;;;;;;;;;28.90;31.60;;;;;;5092778;28;19928;-54
2021/01/24 09:31:41;;;;;;;;;;;28.90;31.60;;;;;;5093078;28;19908;-53
2021/01/24 09:34:06;;;;;;;;;;;28.90;31.50;;;;;;5092885;28;20251;-55
2021/01/24 09:36:32;;;;;;;;;;;29.00;31.50;;;;;;5092997;28;19940;-56
2021/01/24 09:38:57;;;;;;;;;;;29.00;31.50;;;;;;5092506;28;19908;-57
2021/01/24 09:41:23;;;;;;;;;;;29.10;31.50;;;;;;5091879;28;20007;-55
2021/01/24 09:43:48;;;;;;;;;;;29.10;31.40;;;;;;5072297;28;19908;-56
2021/01/24 09:46:13;;;;;;;;;;;29.20;31.40;;;;;;5073209;28;20354;-56
2021/01/24 09:48:39;;;;;;;;;;;29.20;31.30;;;;;;5072089;28;19908;-56
2021/01/24 09:51:08;;;;;;;;;;;29.30;31.30;;;;;;5071875;28;20362;-56
2021/01/24 09:53:37;;;;;;;;;;;29.30;31.30;;;;;;5072071;28;19974;-52
2021/01/24 09:56:03;;;;;;;;;;;29.30;31.90;;;;;;5071912;28;19909;-57
2021/01/24 09:58:29;;;;;;;;;;;29.40;31.30;;;;;;5072056;28;19909;-55
2021/01/24 10:00:54;;;;;;;;;;;29.40;31.20;;;;;;5074628;28;20352;-56
2021/01/24 10:03:20;;;;;;;;;;;29.40;31.20;;;;;;5090101;28;19916;-53
2021/01/24 10:05:45;;;;;;;;;;;29.50;31.20;;;;;;5092239;28;19926;-52
2021/01/24 10:08:11;;;;;;;;;;;29.50;31.10;;;;;;5092168;28;20404;-57
2021/01/24 10:10:36;;;;;;;;;;;29.50;31.10;;;;;;5092076;28;19908;-55
2021/01/24 10:13:02;;;;;;;;;;;29.50;31.10;;;;;;5092092;28;19959;-57
2021/01/24 10:15:28;;;;;;;;;;;29.60;31.10;;;;;;5094500;28;19915;-55
2021/01/24 10:17:53;;;;;;;;;;;29.60;31.10;;;;;;5091995;28;19912;-56
2021/01/24 10:20:20;;;;;;;;;;;29.60;31.10;;;;;;5092823;28;19925;-55
2021/01/24 10:22:45;;;;;;;;;;;29.60;31.10;;;;;;5075500;28;19978;-57
2021/01/24 10:25:11;;;;;;;;;;;29.60;31.70;;;;;;5075422;28;19912;-56
2021/01/24 10:27:36;;;;;;;;;;;29.60;31.10;;;;;;5075293;28;20251;-54
2021/01/24 10:30:02;;;;;;;;;;;29.60;31.00;;;;;;5074925;28;19920;-55
2021/01/24 10:32:28;;;;;;;;;;;29.70;31.00;;;;;;5077827;28;19919;-54
2021/01/24 10:34:53;;;;;;;;;;;29.60;31.00;;;;;;5095171;28;19931;-55
2021/01/24 10:37:19;;;;;;;;;;;29.60;30.90;;;;;;5095535;28;19908;-53
2021/01/24 10:39:44;;;;;;;;;;;29.60;31.60;;;;;;5095826;28;20358;-53
2021/01/24 10:42:10;;;;;;;;;;;29.70;31.10;;;;;;5095426;28;19984;-53
2021/01/24 10:44:35;;;;;;;;;;;29.60;31.60;;;;;;5095887;28;19912;-51
2021/01/24 10:47:01;;;;;;;;;;;29.60;31.10;;;;;;5094033;28;20328;-52
2021/01/24 10:49:26;;;;;;;;;;;29.60;31.10;;;;;;5093493;28;19923;-55
2021/01/24 10:51:52;;;;;;;;;;;29.60;31.10;;;;;;5095656;28;19916;-56
2021/01/24 10:54:17;;;;;;;;;;;29.60;31.20;;;;;;5095555;28;20331;-54
2021/01/24 10:56:43;;;;;;;;;;;29.60;31.20;;;;;;5095477;28;20391;-54
2021/01/24 10:59:08;;;;;;;;;;;29.60;31.20;;;;;;5095457;28;20346;-55
2021/01/24 11:01:34;;;;;;;;;;;29.50;31.10;;;;;;5084343;28;19916;-52
2021/01/24 11:04:00;;;;;;;;;;;29.60;31.20;;;;;;5075240;28;19987;-55
2021/01/24 11:06:25;;;;;;;;;;;29.60;31.20;;;;;;5075134;28;20005;-54
2021/01/24 11:08:51;;;;;;;;;;;29.50;31.20;;;;;;5078175;28;20007;-52
2021/01/24 11:11:16;;;;;;;;;;;29.60;31.20;;;;;;5095176;28;19912;-52
2021/01/24 11:13:42;;;;;;;;;;;29.60;31.20;;;;;;5095200;28;20360;-53
2021/01/24 11:16:07;;;;;;;;;;;29.60;31.20;;;;;;5094853;28;19915;-56
2021/01/24 11:18:33;;;;;;;;;;;29.60;31.10;;;;;;5086800;28;19998;-53
2021/01/24 11:20:58;;;;;;;;;;;29.60;31.10;;;;;;5095252;28;20251;-54
2021/01/24 11:23:24;;;;;;;;;;;29.60;31.10;;;;;;5094784;28;20329;-55
2021/01/24 11:25:49;;;;;;;;;;;29.70;31.20;;;;;;5092192;28;19908;-55
2021/01/24 11:28:15;;;;;;;;;;;29.60;31.10;;;;;;5074672;28;19908;-52
2021/01/24 11:30:40;;;;;;;;;;;29.70;31.20;;;;;;5074255;28;19920;-52
2021/01/24 11:33:06;;;;;;;;;;;29.70;31.80;;;;;;5074664;28;19916;-51
2021/01/24 11:35:31;;;;;;;;;;;29.60;31.20;;;;;;5074502;28;20363;-52
2021/01/24 11:37:56;;;;;;;;;;;29.60;31.10;;;;;;5074535;28;19955;-52
2021/01/24 11:40:22;;;;;;;;;;;29.60;31.10;;;;;;5074562;28;20312;-52
2021/01/24 11:42:47;;;;;;;;;;;29.60;31.10;;;;;;5094596;28;20002;-53
2021/01/24 11:45:13;;;;;;;;;;;29.60;31.10;;;;;;5094375;28;19995;-53
2021/01/24 11:47:39;;;;;;;;;;;29.60;31.10;;;;;;5094654;28;19909;-53
2021/01/24 11:50:04;;;;;;;;;;;29.70;31.10;;;;;;5094448;28;20353;-57
2021/01/24 11:52:30;;;;;;;;;;;29.70;31.20;;;;;;5094438;28;19916;-53
2021/01/24 11:54:55;;;;;;;;;;;29.70;31.20;;;;;;5094430;28;20297;-55
2021/01/24 11:57:21;;;;;;;;;;;29.70;31.20;;;;;;5075008;28;19958;-57
2021/01/24 11:59:46;;;;;;;;;;;29.60;31.20;;;;;;5073694;28;19908;-54
2021/01/24 12:02:12;;;;;;;;;;;29.60;31.20;;;;;;5074038;28;20295;-54
2021/01/24 12:04:37;;;;;;;;;;;29.60;31.20;;;;;;5073998;28;19912;-55
2021/01/24 12:07:03;;;;;;;;;;;29.60;31.20;;;;;;5073562;28;19912;-55
2021/01/24 12:09:28;;;;;;;;;;;29.70;31.20;;;;;;5073923;28;19992;-56
2021/01/24 12:11:54;;;;;;;;;;;29.70;31.30;;;;;;5090609;28;20331;-54
2021/01/24 12:14:19;;;;;;;;;;;29.70;31.20;;;;;;5093985;28;19916;-54
2021/01/24 12:16:45;;;;;;;;;;;29.70;31.30;;;;;;5093802;28;19958;-51
2021/01/24 12:19:10;;;;;;;;;;;29.60;31.30;;;;;;5093970;28;20396;-56
2021/01/24 12:21:36;;;;;;;;;;;29.60;31.20;;;;;;5093713;28;19916;-52
2021/01/24 12:24:02;;;;;;;;;;;29.60;31.30;;;;;;5093788;28;19914;-55
2021/01/24 12:26:29;;;;;;;;;;;29.60;31.30;;;;;;5077413;28;19912;-57
2021/01/24 12:28:54;;;;;;;;;;;29.60;31.30;;;;;;5073219;28;20065;-56
2021/01/24 12:31:20;;;;;;;;;;;29.60;31.30;;;;;;5073617;28;20464;-57
2021/01/24 12:33:45;;;;;;;;;;;29.60;31.20;;;;;;5080223;28;19920;-56
2021/01/24 12:36:11;;;;;;;;;;;29.60;31.20;;;;;;5093732;28;19912;-56
2021/01/24 12:38:36;;;;;;;;;;;29.60;31.20;;;;;;5093515;28;19995;-55
2021/01/24 12:41:02;;;;;;;;;;;29.60;31.20;;;;;;5093395;28;20050;-56
2021/01/24 12:43:27;;;;;;;;;;;29.60;31.30;;;;;;5093296;28;19908;-56
2021/01/24 12:45:53;;;;;;;;;;;29.60;31.30;;;;;;5093587;28;19908;-55
2021/01/24 12:48:18;;;;;;;;;;;29.60;31.30;;;;;;5088134;28;19976;-57
2021/01/24 12:50:43;;;;;;;;;;;29.70;31.20;;;;;;5081617;28;19984;-57
2021/01/24 12:53:09;;;;;;;;;;;29.60;31.20;;;;;;5093434;28;20158;-57
2021/01/24 12:55:34;;;;;;;;;;;29.70;31.20;;;;;;5093372;28;20247;-55
2021/01/24 12:58:00;;;;;;;;;;;29.70;31.20;;;;;;5093386;28;20007;-56
2021/01/24 13:00:25;;;;;;;;;;;29.70;31.20;;;;;;5093323;28;19941;-56
2021/01/24 13:02:51;;;;;;;;;;;29.70;31.20;;;;;;5074475;28;20357;-56
2021/01/24 13:05:16;;;;;;;;;;;29.70;31.20;;;;;;5093394;28;20306;-57
2021/01/24 13:07:42;;;;;;;;;;;29.70;31.20;;;;;;5092934;28;20357;-57
2021/01/24 13:10:08;;;;;;;;;;;29.70;31.20;;;;;;5093183;28;19908;-53
2021/01/24 13:12:35;;;;;;;;;;;29.70;31.20;;;;;;5073973;28;19913;-53
2021/01/24 13:15:01;;;;;;;;;;;29.70;31.20;;;;;;5072983;28;19908;-51
2021/01/24 13:17:26;;;;;;;;;;;29.70;31.20;;;;;;5073045;28;19931;-56
2021/01/24 13:19:52;;;;;;;;;;;29.70;31.90;;;;;;5072940;28;20289;-52
2021/01/24 13:22:17;;;;;;;;;;;29.80;31.20;;;;;;5072605;28;19909;-53
2021/01/24 13:24:43;;;;;;;;;;;29.70;31.20;;;;;;5072966;28;19908;-55
2021/01/24 13:27:08;;;;;;;;;;;29.70;31.20;;;;;;5079961;28;19912;-54
2021/01/24 13:29:34;;;;;;;;;;;29.70;31.30;;;;;;5092691;28;19924;-56
2021/01/24 13:31:59;;;;;;;;;;;29.70;31.40;;;;;;5090988;28;19986;-56
2021/01/24 13:34:24;;;;;;;;;;;29.70;31.30;;;;;;5092684;28;20011;-54
2021/01/24 13:36:50;;;;;;;;;;;29.70;31.30;;;;;;5093019;28;19915;-53
2021/01/24 13:39:16;;;;;;;;;;;29.70;31.40;;;;;;5092967;28;19912;-54
2021/01/24 13:41:41;;;;;;;;;;;29.70;31.40;;;;;;5092983;28;19946;-54
2021/01/24 13:44:07;;;;;;;;;;;29.70;31.40;;;;;;5092919;28;20366;-53
2021/01/24 13:46:32;;;;;;;;;;;29.70;31.40;;;;;;5090483;28;19915;-53
2021/01/24 13:48:58;;;;;;;;;;;29.70;31.50;;;;;;5072736;28;19912;-54
2021/01/24 13:51:23;;;;;;;;;;;29.70;31.40;;;;;;5076314;28;19962;-52
2021/01/24 13:53:49;;;;;;;;;;;29.70;31.50;;;;;;5076491;28;19916;-53
2021/01/24 13:56:14;;;;;;;;;;;29.60;31.50;;;;;;5076217;28;20297;-54
2021/01/24 13:58:40;;;;;;;;;;;29.60;31.40;;;;;;5076373;28;19912;-54
2021/01/24 14:01:05;;;;;;;;;;;29.60;31.50;;;;;;5077309;28;19908;-55
2021/01/24 14:03:31;;;;;;;;;;;29.60;31.40;;;;;;5076386;28;19913;-56
2021/01/24 14:05:56;;;;;;;;;;;29.70;31.60;;;;;;5075990;28;19912;-55
2021/01/24 14:08:22;;;;;;;;;;;29.60;31.50;;;;;;5076249;28;19943;-56
2021/01/24 14:10:47;;;;;;;;;;;29.70;31.60;;;;;;5076122;28;19908;-51